sensor_id;sensor_type;location;lat;lon;timestamp;temperature;humidity
37240;DHT22;23130;48.760;9.178;2023-03-11T00:00:44;2.50;99.90
37240;DHT22;23130;48.760;9.178;2023-03-11T00:03:12;2.50;99.90
37240;DHT22;23130;48.760;9.178;2023-03-11T00:05:41;2.40;99.90
37240;DHT22;23130;48.760;9.178;2023-03-11T00:08:09;2.30;99.90
37240;DHT22;23130;48.760;9.178;2023-03-11T00:10:41;2.20;99.90
37240;DHT22;23130;48.760;9.178;2023-03-11T00:13:09;2.20;99.90
37240;DHT22;23130;48.760;9.178;2023-03-11T00:15:37;2.10;99.90
37240;DHT22;23130;48.760;9.178;2023-03-11T00:18:03;2.10;99.90
37240;DHT22;23130;48.760;9.178;2023-03-11T00:20:34;2.00;99.90
37240;DHT22;23130;48.760;9.178;2023-03-11T00:23:00;2.10;99.90
37240;DHT22;23130;48.760;9.178;2023-03-11T00:25:29;2.10;99.90
37240;DHT22;23130;48.760;9.178;2023-03-11T00:27:55;2.10;99.90
37240;DHT22;23130;48.760;9.178;2023-03-11T00:30:22;2.20;99.90
37240;DHT22;23130;48.760;9.178;2023-03-11T00:32:49;2.20;99.90
37240;DHT22;23130;48.760;9.178;2023-03-11T00:35:17;2.30;99.90
37240;DHT22;23130;48.760;9.178;2023-03-11T00:37:44;2.30;99.90
37240;DHT22;23130;48.760;9.178;2023-03-11T00:40:16;2.30;99.90
37240;DHT22;23130;48.760;9.178;2023-03-11T00:42:42;2.40;99.90
37240;DHT22;23130;48.760;9.178;2023-03-11T00:45:08;2.40;99.90
37240;DHT22;23130;48.760;9.178;2023-03-11T00:47:34;2.40;99.90
37240;DHT22;23130;48.760;9.178;2023-03-11T00:49:59;2.40;99.90
37240;DHT22;23130;48.760;9.178;2023-03-11T00:52:25;2.40;99.90
37240;DHT22;23130;48.760;9.178;2023-03-11T00:54:50;2.40;99.90
37240;DHT22;23130;48.760;9.178;2023-03-11T00:57:16;2.40;99.90
37240;DHT22;23130;48.760;9.178;2023-03-11T00:59:42;2.40;99.90
37240;DHT22;23130;48.760;9.178;2023-03-11T01:02:07;2.40;99.90
37240;DHT22;23130;48.760;9.178;2023-03-11T01:04:33;2.50;99.90
37240;DHT22;23130;48.760;9.178;2023-03-11T01:06:58;2.40;99.90
37240;DHT22;23130;48.760;9.178;2023-03-11T01:09:24;2.50;99.90
37240;DHT22;23130;48.760;9.178;2023-03-11T01:11:49;2.40;99.90
37240;DHT22;23130;48.760;9.178;2023-03-11T01:14:16;2.50;99.90
37240;DHT22;23130;48.760;9.178;2023-03-11T01:16:42;2.50;99.90
37240;DHT22;23130;48.760;9.178;2023-03-11T01:19:07;2.50;99.90
37240;DHT22;23130;48.760;9.178;2023-03-11T01:21:33;2.50;99.90
37240;DHT22;23130;48.760;9.178;2023-03-11T01:23:58;2.40;99.90
37240;DHT22;23130;48.760;9.178;2023-03-11T01:26:24;2.40;99.90
37240;DHT22;23130;48.760;9.178;2023-03-11T01:28:50;2.40;99.90
37240;DHT22;23130;48.760;9.178;2023-03-11T01:31:15;2.40;99.90
37240;DHT22;23130;48.760;9.178;2023-03-11T01:33:41;2.30;99.90
37240;DHT22;23130;48.760;9.178;2023-03-11T01:36:06;2.20;99.90
37240;DHT22;23130;48.760;9.178;2023-03-11T01:38:32;2.20;99.90
37240;DHT22;23130;48.760;9.178;2023-03-11T01:40:58;2.10;99.90
37240;DHT22;23130;48.760;9.178;2023-03-11T01:48:44;1.80;99.90
37240;DHT22;23130;48.760;9.178;2023-03-11T01:51:11;1.60;99.90
37240;DHT22;23130;48.760;9.178;2023-03-11T01:53:37;1.60;99.90
37240;DHT22;23130;48.760;9.178;2023-03-11T01:56:04;1.60;99.90
37240;DHT22;23130;48.760;9.178;2023-03-11T01:58:35;1.60;99.90
37240;DHT22;23130;48.760;9.178;2023-03-11T02:01:02;1.60;99.90
37240;DHT22;23130;48.760;9.178;2023-03-11T02:03:34;1.50;99.90
37240;DHT22;23130;48.760;9.178;2023-03-11T02:06:03;1.50;99.90
37240;DHT22;23130;48.760;9.178;2023-03-11T02:08:30;1.50;99.90
37240;DHT22;23130;48.760;9.178;2023-03-11T02:10:59;1.50;99.90
37240;DHT22;23130;48.760;9.178;2023-03-11T02:13:26;1.60;99.90
37240;DHT22;23130;48.760;9.178;2023-03-11T02:15:52;1.60;99.90
37240;DHT22;23130;48.760;9.178;2023-03-11T02:18:18;1.60;99.90
37240;DHT22;23130;48.760;9.178;2023-03-11T02:20:53;1.60;99.90
37240;DHT22;23130;48.760;9.178;2023-03-11T02:23:24;1.60;99.90
37240;DHT22;23130;48.760;9.178;2023-03-11T02:28:26;1.60;99.90
37240;DHT22;23130;48.760;9.178;2023-03-11T02:30:52;1.60;99.90
37240;DHT22;23130;48.760;9.178;2023-03-11T02:33:20;1.50;99.90
37240;DHT22;23130;48.760;9.178;2023-03-11T02:35:47;1.40;99.90
37240;DHT22;23130;48.760;9.178;2023-03-11T02:38:13;1.40;99.90
37240;DHT22;23130;48.760;9.178;2023-03-11T02:40:45;1.30;99.90
37240;DHT22;23130;48.760;9.178;2023-03-11T02:43:16;1.20;99.90
37240;DHT22;23130;48.760;9.178;2023-03-11T02:45:44;1.10;99.90
37240;DHT22;23130;48.760;9.178;2023-03-11T02:48:11;1.10;99.90
37240;DHT22;23130;48.760;9.178;2023-03-11T02:50:37;1.00;99.90
37240;DHT22;23130;48.760;9.178;2023-03-11T02:53:04;0.90;99.90
37240;DHT22;23130;48.760;9.178;2023-03-11T02:55:30;0.80;99.90
37240;DHT22;23130;48.760;9.178;2023-03-11T02:57:55;0.70;99.90
37240;DHT22;23130;48.760;9.178;2023-03-11T03:00:21;0.70;99.90
37240;DHT22;23130;48.760;9.178;2023-03-11T03:02:47;0.60;99.90
37240;DHT22;23130;48.760;9.178;2023-03-11T03:05:17;0.60;99.90
37240;DHT22;23130;48.760;9.178;2023-03-11T03:07:45;0.60;99.90
37240;DHT22;23130;48.760;9.178;2023-03-11T03:10:11;0.50;99.90
37240;DHT22;23130;48.760;9.178;2023-03-11T03:12:37;0.50;99.90
37240;DHT22;23130;48.760;9.178;2023-03-11T03:15:03;0.40;99.90
37240;DHT22;23130;48.760;9.178;2023-03-11T03:17:28;0.40;99.90
37240;DHT22;23130;48.760;9.178;2023-03-11T03:19:54;0.40;99.90
37240;DHT22;23130;48.760;9.178;2023-03-11T03:22:19;0.40;99.90
37240;DHT22;23130;48.760;9.178;2023-03-11T03:24:45;0.30;99.90
37240;DHT22;23130;48.760;9.178;2023-03-11T03:27:11;0.30;99.90
37240;DHT22;23130;48.760;9.178;2023-03-11T03:29:36;0.30;99.90
37240;DHT22;23130;48.760;9.178;2023-03-11T03:32:02;0.20;99.90
37240;DHT22;23130;48.760;9.178;2023-03-11T03:34:27;0.10;99.90
37240;DHT22;23130;48.760;9.178;2023-03-11T03:36:53;0.00;99.90
37240;DHT22;23130;48.760;9.178;2023-03-11T03:39:18;-0.10;99.90
37240;DHT22;23130;48.760;9.178;2023-03-11T03:41:46;-0.20;99.90
37240;DHT22;23130;48.760;9.178;2023-03-11T03:44:11;-0.30;99.90
37240;DHT22;23130;48.760;9.178;2023-03-11T03:46:37;-0.30;99.90
37240;DHT22;23130;48.760;9.178;2023-03-11T03:49:03;-0.40;99.90
37240;DHT22;23130;48.760;9.178;2023-03-11T03:51:29;-0.40;99.90
37240;DHT22;23130;48.760;9.178;2023-03-11T03:53:54;-0.50;99.90
37240;DHT22;23130;48.760;9.178;2023-03-11T03:56:20;-0.50;99.90
37240;DHT22;23130;48.760;9.178;2023-03-11T03:58:46;-0.50;99.90
37240;DHT22;23130;48.760;9.178;2023-03-11T04:01:11;-0.50;99.90
37240;DHT22;23130;48.760;9.178;2023-03-11T04:03:37;-0.50;99.90
37240;DHT22;23130;48.760;9.178;2023-03-11T04:06:10;-0.50;99.90
37240;DHT22;23130;48.760;9.178;2023-03-11T04:08:36;-0.50;99.90
37240;DHT22;23130;48.760;9.178;2023-03-11T04:11:02;-0.40;99.90
37240;DHT22;23130;48.760;9.178;2023-03-11T04:13:27;-0.50;99.90
37240;DHT22;23130;48.760;9.178;2023-03-11T04:15:53;-0.40;99.90
37240;DHT22;23130;48.760;9.178;2023-03-11T04:18:19;-0.40;99.90
37240;DHT22;23130;48.760;9.178;2023-03-11T04:20:44;-0.40;99.90
37240;DHT22;23130;48.760;9.178;2023-03-11T04:23:10;-0.40;99.90
37240;DHT22;23130;48.760;9.178;2023-03-11T04:25:37;-0.40;99.90
37240;DHT22;23130;48.760;9.178;2023-03-11T04:28:03;-0.40;99.90
37240;DHT22;23130;48.760;9.178;2023-03-11T04:30:28;-0.40;99.90
37240;DHT22;23130;48.760;9.178;2023-03-11T04:32:54;-0.50;99.90
37240;DHT22;23130;48.760;9.178;2023-03-11T04:35:19;-0.50;99.90
37240;DHT22;23130;48.760;9.178;2023-03-11T04:37:45;-0.50;99.90
37240;DHT22;23130;48.760;9.178;2023-03-11T04:40:11;-0.50;99.90
37240;DHT22;23130;48.760;9.178;2023-03-11T04:42:36;-0.60;99.90
37240;DHT22;23130;48.760;9.178;2023-03-11T04:45:04;-0.70;99.90
37240;DHT22;23130;48.760;9.178;2023-03-11T04:47:30;-0.70;99.90
37240;DHT22;23130;48.760;9.178;2023-03-11T04:49:55;-0.70;99.90
37240;DHT22;23130;48.760;9.178;2023-03-11T04:52:21;-0.70;99.90
37240;DHT22;23130;48.760;9.178;2023-03-11T04:54:46;-0.70;99.90
37240;DHT22;23130;48.760;9.178;2023-03-11T04:57:12;-0.80;99.90
37240;DHT22;23130;48.760;9.178;2023-03-11T04:59:38;-0.70;99.90
37240;DHT22;23130;48.760;9.178;2023-03-11T05:02:03;-0.70;99.90
37240;DHT22;23130;48.760;9.178;2023-03-11T05:04:29;-0.80;99.90
37240;DHT22;23130;48.760;9.178;2023-03-11T05:06:55;-0.70;99.90
37240;DHT22;23130;48.760;9.178;2023-03-11T05:09:20;-0.80;99.90
37240;DHT22;23130;48.760;9.178;2023-03-11T05:11:46;-0.80;99.90
37240;DHT22;23130;48.760;9.178;2023-03-11T05:14:11;-0.80;99.90
37240;DHT22;23130;48.760;9.178;2023-03-11T05:16:37;-0.80;99.90
37240;DHT22;23130;48.760;9.178;2023-03-11T05:19:02;-0.80;99.90
37240;DHT22;23130;48.760;9.178;2023-03-11T05:21:48;-0.80;99.90
37240;DHT22;23130;48.760;9.178;2023-03-11T05:24:13;-0.80;99.90
37240;DHT22;23130;48.760;9.178;2023-03-11T05:26:39;-0.90;99.90
37240;DHT22;23130;48.760;9.178;2023-03-11T05:29:05;-0.80;99.90
37240;DHT22;23130;48.760;9.178;2023-03-11T05:31:31;-0.80;99.90
37240;DHT22;23130;48.760;9.178;2023-03-11T05:33:56;-0.90;99.90
37240;DHT22;23130;48.760;9.178;2023-03-11T05:36:22;-0.90;99.90
37240;DHT22;23130;48.760;9.178;2023-03-11T05:38:47;-0.90;99.90
37240;DHT22;23130;48.760;9.178;2023-03-11T05:41:13;-0.80;99.90
37240;DHT22;23130;48.760;9.178;2023-03-11T05:43:38;-0.80;99.90
37240;DHT22;23130;48.760;9.178;2023-03-11T05:46:04;-0.80;99.90
37240;DHT22;23130;48.760;9.178;2023-03-11T05:48:29;-0.70;99.90
37240;DHT22;23130;48.760;9.178;2023-03-11T05:50:55;-0.70;99.90
37240;DHT22;23130;48.760;9.178;2023-03-11T05:53:20;-0.80;99.90
37240;DHT22;23130;48.760;9.178;2023-03-11T05:55:55;-0.70;99.90
37240;DHT22;23130;48.760;9.178;2023-03-11T05:58:20;-0.70;99.90
37240;DHT22;23130;48.760;9.178;2023-03-11T06:00:46;-0.80;99.90
37240;DHT22;23130;48.760;9.178;2023-03-11T06:03:11;-0.80;99.90
37240;DHT22;23130;48.760;9.178;2023-03-11T06:05:44;-0.80;99.90
37240;DHT22;23130;48.760;9.178;2023-03-11T06:08:09;-0.90;99.90
37240;DHT22;23130;48.760;9.178;2023-03-11T06:10:35;-0.80;99.90
37240;DHT22;23130;48.760;9.178;2023-03-11T06:13:00;-0.70;99.90
37240;DHT22;23130;48.760;9.178;2023-03-11T06:15:26;-0.70;99.90
37240;DHT22;23130;48.760;9.178;2023-03-11T06:17:51;-0.60;99.90
37240;DHT22;23130;48.760;9.178;2023-03-11T06:20:17;-0.50;99.90
37240;DHT22;23130;48.760;9.178;2023-03-11T06:22:43;-0.40;99.90
37240;DHT22;23130;48.760;9.178;2023-03-11T06:25:08;-0.40;99.90
37240;DHT22;23130;48.760;9.178;2023-03-11T06:27:34;-0.40;99.90
37240;DHT22;23130;48.760;9.178;2023-03-11T06:30:00;-0.30;99.90
37240;DHT22;23130;48.760;9.178;2023-03-11T06:32:27;-0.30;99.90
37240;DHT22;23130;48.760;9.178;2023-03-11T06:34:54;-0.20;99.90
37240;DHT22;23130;48.760;9.178;2023-03-11T06:37:19;-0.10;99.90
37240;DHT22;23130;48.760;9.178;2023-03-11T06:39:46;0.00;99.90
37240;DHT22;23130;48.760;9.178;2023-03-11T06:42:11;0.10;99.90
37240;DHT22;23130;48.760;9.178;2023-03-11T06:44:37;0.20;99.90
37240;DHT22;23130;48.760;9.178;2023-03-11T06:47:03;0.20;99.90
37240;DHT22;23130;48.760;9.178;2023-03-11T06:49:28;0.30;99.90
37240;DHT22;23130;48.760;9.178;2023-03-11T06:51:54;0.40;99.90
37240;DHT22;23130;48.760;9.178;2023-03-11T06:54:19;0.40;99.90
37240;DHT22;23130;48.760;9.178;2023-03-11T06:56:45;0.40;99.90
37240;DHT22;23130;48.760;9.178;2023-03-11T06:59:10;0.40;99.90
37240;DHT22;23130;48.760;9.178;2023-03-11T07:01:39;0.60;99.90
37240;DHT22;23130;48.760;9.178;2023-03-11T07:04:04;0.70;99.90
37240;DHT22;23130;48.760;9.178;2023-03-11T07:06:30;1.00;99.90
37240;DHT22;23130;48.760;9.178;2023-03-11T07:08:55;1.40;99.90
37240;DHT22;23130;48.760;9.178;2023-03-11T07:11:23;1.80;99.90
37240;DHT22;23130;48.760;9.178;2023-03-11T07:13:49;2.00;99.90
37240;DHT22;23130;48.760;9.178;2023-03-11T07:16:18;2.40;99.90
37240;DHT22;23130;48.760;9.178;2023-03-11T07:18:45;2.30;99.90
37240;DHT22;23130;48.760;9.178;2023-03-11T07:21:13;2.20;99.90
37240;DHT22;23130;48.760;9.178;2023-03-11T07:23:40;2.00;99.90
37240;DHT22;23130;48.760;9.178;2023-03-11T07:26:08;1.80;99.90
37240;DHT22;23130;48.760;9.178;2023-03-11T07:28:34;1.70;99.90
37240;DHT22;23130;48.760;9.178;2023-03-11T07:30:59;1.60;99.90
37240;DHT22;23130;48.760;9.178;2023-03-11T07:33:30;1.40;99.90
37240;DHT22;23130;48.760;9.178;2023-03-11T07:35:56;1.30;99.90
37240;DHT22;23130;48.760;9.178;2023-03-11T07:38:21;1.20;99.90
37240;DHT22;23130;48.760;9.178;2023-03-11T07:40:57;1.10;99.90
37240;DHT22;23130;48.760;9.178;2023-03-11T07:43:22;1.10;99.90
37240;DHT22;23130;48.760;9.178;2023-03-11T07:45:48;1.00;99.90
37240;DHT22;23130;48.760;9.178;2023-03-11T07:48:14;1.10;99.90
37240;DHT22;23130;48.760;9.178;2023-03-11T07:50:40;1.10;99.90
37240;DHT22;23130;48.760;9.178;2023-03-11T07:53:05;1.10;99.90
37240;DHT22;23130;48.760;9.178;2023-03-11T07:55:32;1.20;99.90
37240;DHT22;23130;48.760;9.178;2023-03-11T07:57:57;1.20;99.90
37240;DHT22;23130;48.760;9.178;2023-03-11T08:00:23;1.30;99.90
37240;DHT22;23130;48.760;9.178;2023-03-11T08:02:49;1.20;99.90
37240;DHT22;23130;48.760;9.178;2023-03-11T08:05:15;1.20;99.90
37240;DHT22;23130;48.760;9.178;2023-03-11T08:07:40;1.30;99.90
37240;DHT22;23130;48.760;9.178;2023-03-11T08:10:06;1.30;99.90
37240;DHT22;23130;48.760;9.178;2023-03-11T08:12:32;1.40;99.90
37240;DHT22;23130;48.760;9.178;2023-03-11T08:14:58;1.40;99.90
37240;DHT22;23130;48.760;9.178;2023-03-11T08:17:23;1.40;99.90
37240;DHT22;23130;48.760;9.178;2023-03-11T08:19:49;1.50;99.90
37240;DHT22;23130;48.760;9.178;2023-03-11T08:22:14;1.40;99.90
37240;DHT22;23130;48.760;9.178;2023-03-11T08:24:40;1.50;99.90
37240;DHT22;23130;48.760;9.178;2023-03-11T08:27:07;1.50;99.90
37240;DHT22;23130;48.760;9.178;2023-03-11T08:29:34;1.60;99.90
37240;DHT22;23130;48.760;9.178;2023-03-11T08:31:59;1.60;99.90
37240;DHT22;23130;48.760;9.178;2023-03-11T08:34:25;1.60;99.90
37240;DHT22;23130;48.760;9.178;2023-03-11T08:36:52;1.60;99.90
37240;DHT22;23130;48.760;9.178;2023-03-11T08:39:17;1.70;99.90
37240;DHT22;23130;48.760;9.178;2023-03-11T08:41:43;1.80;99.90
37240;DHT22;23130;48.760;9.178;2023-03-11T08:44:08;2.00;99.90
37240;DHT22;23130;48.760;9.178;2023-03-11T08:46:36;2.00;99.90
37240;DHT22;23130;48.760;9.178;2023-03-11T08:49:03;2.10;99.90
37240;DHT22;23130;48.760;9.178;2023-03-11T08:51:31;2.30;99.90
37240;DHT22;23130;48.760;9.178;2023-03-11T08:53:58;2.40;99.90
37240;DHT22;23130;48.760;9.178;2023-03-11T08:56:23;2.50;99.90
37240;DHT22;23130;48.760;9.178;2023-03-11T08:58:49;2.40;99.90
37240;DHT22;23130;48.760;9.178;2023-03-11T09:01:15;2.40;99.90
37240;DHT22;23130;48.760;9.178;2023-03-11T09:03:41;2.50;99.90
37240;DHT22;23130;48.760;9.178;2023-03-11T09:06:10;2.70;99.90
37240;DHT22;23130;48.760;9.178;2023-03-11T09:08:36;3.00;99.90
37240;DHT22;23130;48.760;9.178;2023-03-11T09:11:01;3.20;99.90
37240;DHT22;23130;48.760;9.178;2023-03-11T09:13:27;3.30;99.90
37240;DHT22;23130;48.760;9.178;2023-03-11T09:15:53;3.30;99.90
37240;DHT22;23130;48.760;9.178;2023-03-11T09:18:19;3.20;99.90
37240;DHT22;23130;48.760;9.178;2023-03-11T09:20:45;3.10;99.90
37240;DHT22;23130;48.760;9.178;2023-03-11T09:23:13;3.00;99.90
37240;DHT22;23130;48.760;9.178;2023-03-11T09:25:38;3.10;99.90
37240;DHT22;23130;48.760;9.178;2023-03-11T09:28:04;3.20;99.90
37240;DHT22;23130;48.760;9.178;2023-03-11T09:30:30;3.10;99.90
37240;DHT22;23130;48.760;9.178;2023-03-11T09:32:56;3.20;99.90
37240;DHT22;23130;48.760;9.178;2023-03-11T09:35:22;3.40;99.90
37240;DHT22;23130;48.760;9.178;2023-03-11T09:37:47;3.70;99.90
37240;DHT22;23130;48.760;9.178;2023-03-11T09:40:19;3.90;99.90
37240;DHT22;23130;48.760;9.178;2023-03-11T09:48:45;4.20;99.90
37240;DHT22;23130;48.760;9.178;2023-03-11T09:51:19;3.90;99.90
37240;DHT22;23130;48.760;9.178;2023-03-11T09:53:50;3.90;99.90
37240;DHT22;23130;48.760;9.178;2023-03-11T09:56:21;4.00;99.90
37240;DHT22;23130;48.760;9.178;2023-03-11T09:58:49;4.20;99.90
37240;DHT22;23130;48.760;9.178;2023-03-11T10:01:26;4.40;99.90
37240;DHT22;23130;48.760;9.178;2023-03-11T10:06:47;4.70;99.90
37240;DHT22;23130;48.760;9.178;2023-03-11T10:14:43;5.30;99.90
37240;DHT22;23130;48.760;9.178;2023-03-11T10:25:14;6.00;99.90
37240;DHT22;23130;48.760;9.178;2023-03-11T10:27:47;5.70;99.90
37240;DHT22;23130;48.760;9.178;2023-03-11T10:30:30;5.60;99.90
37240;DHT22;23130;48.760;9.178;2023-03-11T10:35:38;5.20;99.90
37240;DHT22;23130;48.760;9.178;2023-03-11T10:38:27;5.00;99.90
37240;DHT22;23130;48.760;9.178;2023-03-11T10:40:58;4.80;99.90
37240;DHT22;23130;48.760;9.178;2023-03-11T10:43:36;4.60;99.90
37240;DHT22;23130;48.760;9.178;2023-03-11T10:46:18;4.60;99.90
37240;DHT22;23130;48.760;9.178;2023-03-11T10:48:44;4.40;99.90
37240;DHT22;23130;48.760;9.178;2023-03-11T10:51:23;4.50;99.90
37240;DHT22;23130;48.760;9.178;2023-03-11T10:53:56;4.80;99.90
37240;DHT22;23130;48.760;9.178;2023-03-11T10:56:30;5.00;99.90
37240;DHT22;23130;48.760;9.178;2023-03-11T10:58:56;5.20;99.90
37240;DHT22;23130;48.760;9.178;2023-03-11T11:01:23;5.30;99.90
37240;DHT22;23130;48.760;9.178;2023-03-11T11:03:54;5.30;99.90
37240;DHT22;23130;48.760;9.178;2023-03-11T11:06:34;5.50;99.90
37240;DHT22;23130;48.760;9.178;2023-03-11T11:09:20;5.50;99.90
37240;DHT22;23130;48.760;9.178;2023-03-11T11:12:00;5.50;99.90
37240;DHT22;23130;48.760;9.178;2023-03-11T11:14:44;5.40;99.90
37240;DHT22;23130;48.760;9.178;2023-03-11T11:17:17;5.30;99.90
37240;DHT22;23130;48.760;9.178;2023-03-11T11:19:45;5.00;99.90
37240;DHT22;23130;48.760;9.178;2023-03-11T11:22:15;4.90;99.90
37240;DHT22;23130;48.760;9.178;2023-03-11T11:24:46;4.80;99.90
37240;DHT22;23130;48.760;9.178;2023-03-11T11:27:24;4.80;99.90
37240;DHT22;23130;48.760;9.178;2023-03-11T11:30:22;4.80;99.90
37240;DHT22;23130;48.760;9.178;2023-03-11T11:32:48;5.00;99.90
37240;DHT22;23130;48.760;9.178;2023-03-11T11:35:18;5.40;99.90
37240;DHT22;23130;48.760;9.178;2023-03-11T11:37:53;5.70;99.90
37240;DHT22;23130;48.760;9.178;2023-03-11T11:40:30;6.10;99.90
37240;DHT22;23130;48.760;9.178;2023-03-11T11:43:00;6.40;99.50
37240;DHT22;23130;48.760;9.178;2023-03-11T11:45:33;6.80;99.90
37240;DHT22;23130;48.760;9.178;2023-03-11T11:48:05;7.10;98.50
37240;DHT22;23130;48.760;9.178;2023-03-11T11:50:34;7.50;97.80
37240;DHT22;23130;48.760;9.178;2023-03-11T11:55:47;7.50;97.80
37240;DHT22;23130;48.760;9.178;2023-03-11T11:58:14;7.70;96.70
37240;DHT22;23130;48.760;9.178;2023-03-11T12:08:52;7.60;96.60
37240;DHT22;23130;48.760;9.178;2023-03-11T12:11:25;7.60;97.60
37240;DHT22;23130;48.760;9.178;2023-03-11T12:16:44;7.70;97.50
37240;DHT22;23130;48.760;9.178;2023-03-11T12:27:24;6.80;97.10
37240;DHT22;23130;48.760;9.178;2023-03-11T12:29:54;6.60;96.50
37240;DHT22;23130;48.760;9.178;2023-03-11T12:33:12;6.50;96.90
37240;DHT22;23130;48.760;9.178;2023-03-11T12:37:43;6.40;97.20
37240;DHT22;23130;48.760;9.178;2023-03-11T12:45:59;6.60;97.60
37240;DHT22;23130;48.760;9.178;2023-03-11T12:50:57;6.50;97.80
37240;DHT22;23130;48.760;9.178;2023-03-11T12:59:00;6.50;97.10
37240;DHT22;23130;48.760;9.178;2023-03-11T13:04:54;6.40;96.60
37240;DHT22;23130;48.760;9.178;2023-03-11T13:10:54;6.20;96.70
37240;DHT22;23130;48.760;9.178;2023-03-11T13:12:54;6.10;96.80
37240;DHT22;23130;48.760;9.178;2023-03-11T13:18:02;6.00;97.00
37240;DHT22;23130;48.760;9.178;2023-03-11T13:28:34;6.10;96.60
37240;DHT22;23130;48.760;9.178;2023-03-11T13:31:33;5.90;96.90
37240;DHT22;23130;48.760;9.178;2023-03-11T13:37:15;5.50;97.10
37240;DHT22;23130;48.760;9.178;2023-03-11T13:39:59;5.40;97.40
37240;DHT22;23130;48.760;9.178;2023-03-11T13:42:35;5.30;97.60
37240;DHT22;23130;48.760;9.178;2023-03-11T13:45:02;5.20;98.20
37240;DHT22;23130;48.760;9.178;2023-03-11T13:47:30;5.20;98.40
37240;DHT22;23130;48.760;9.178;2023-03-11T13:50:14;5.20;98.60
37240;DHT22;23130;48.760;9.178;2023-03-11T13:52:47;5.40;98.90
37240;DHT22;23130;48.760;9.178;2023-03-11T13:57:52;5.70;98.40
37240;DHT22;23130;48.760;9.178;2023-03-11T14:00:20;5.80;98.50
37240;DHT22;23130;48.760;9.178;2023-03-11T14:03:00;6.00;99.10
37240;DHT22;23130;48.760;9.178;2023-03-11T14:05:30;6.20;97.40
37240;DHT22;23130;48.760;9.178;2023-03-11T14:08:21;6.20;96.70
37240;DHT22;23130;48.760;9.178;2023-03-11T14:11:15;6.20;97.40
37240;DHT22;23130;48.760;9.178;2023-03-11T14:13:48;6.20;97.00
37240;DHT22;23130;48.760;9.178;2023-03-11T14:16:33;6.20;96.70
37240;DHT22;23130;48.760;9.178;2023-03-11T14:19:17;6.10;96.90
37240;DHT22;23130;48.760;9.178;2023-03-11T14:21:45;6.10;97.60
37240;DHT22;23130;48.760;9.178;2023-03-11T14:24:22;6.20;97.40
37240;DHT22;23130;48.760;9.178;2023-03-11T14:26:50;6.40;97.00
37240;DHT22;23130;48.760;9.178;2023-03-11T14:29:31;6.60;97.60
37240;DHT22;23130;48.760;9.178;2023-03-11T14:31:57;6.90;97.80
37240;DHT22;23130;48.760;9.178;2023-03-11T14:34:24;7.10;98.00
37240;DHT22;23130;48.760;9.178;2023-03-11T14:36:53;7.10;97.80
37240;DHT22;23130;48.760;9.178;2023-03-11T14:39:32;7.10;97.30
37240;DHT22;23130;48.760;9.178;2023-03-11T14:47:18;7.00;97.90
37240;DHT22;23130;48.760;9.178;2023-03-11T14:49:49;7.00;98.50
37240;DHT22;23130;48.760;9.178;2023-03-11T14:52:32;7.00;98.00
37240;DHT22;23130;48.760;9.178;2023-03-11T14:55:00;7.20;98.70
37240;DHT22;23130;48.760;9.178;2023-03-11T14:58:17;7.40;97.40
37240;DHT22;23130;48.760;9.178;2023-03-11T15:00:39;7.30;97.60
37240;DHT22;23130;48.760;9.178;2023-03-11T15:03:25;7.50;98.20
37240;DHT22;23130;48.760;9.178;2023-03-11T15:05:55;7.50;97.30
37240;DHT22;23130;48.760;9.178;2023-03-11T15:08:26;7.50;97.50
37240;DHT22;23130;48.760;9.178;2023-03-11T15:13:38;7.40;97.50
37240;DHT22;23130;48.760;9.178;2023-03-11T15:16:06;7.20;97.70
37240;DHT22;23130;48.760;9.178;2023-03-11T15:18:34;7.10;98.10
37240;DHT22;23130;48.760;9.178;2023-03-11T15:21:05;7.00;98.30
37240;DHT22;23130;48.760;9.178;2023-03-11T15:23:33;6.90;98.00
37240;DHT22;23130;48.760;9.178;2023-03-11T15:25:59;6.80;98.50
37240;DHT22;23130;48.760;9.178;2023-03-11T15:28:29;6.70;98.40
37240;DHT22;23130;48.760;9.178;2023-03-11T15:33:46;6.40;98.60
37240;DHT22;23130;48.760;9.178;2023-03-11T15:44:33;6.20;99.30
37240;DHT22;23130;48.760;9.178;2023-03-11T15:47:01;6.10;99.30
37240;DHT22;23130;48.760;9.178;2023-03-11T15:49:27;6.10;99.40
37240;DHT22;23130;48.760;9.178;2023-03-11T15:52:02;6.10;99.50
37240;DHT22;23130;48.760;9.178;2023-03-11T15:54:28;6.00;99.60
37240;DHT22;23130;48.760;9.178;2023-03-11T15:56:55;5.90;99.70
37240;DHT22;23130;48.760;9.178;2023-03-11T15:59:22;5.80;99.60
37240;DHT22;23130;48.760;9.178;2023-03-11T16:01:48;5.60;99.90
37240;DHT22;23130;48.760;9.178;2023-03-11T16:04:16;5.50;99.90
37240;DHT22;23130;48.760;9.178;2023-03-11T16:06:42;5.40;99.90
37240;DHT22;23130;48.760;9.178;2023-03-11T16:09:09;5.20;99.90
37240;DHT22;23130;48.760;9.178;2023-03-11T16:11:35;5.20;99.90
37240;DHT22;23130;48.760;9.178;2023-03-11T16:14:05;5.20;99.90
37240;DHT22;23130;48.760;9.178;2023-03-11T16:16:31;5.20;99.90
37240;DHT22;23130;48.760;9.178;2023-03-11T16:18:56;5.20;99.90
37240;DHT22;23130;48.760;9.178;2023-03-11T16:21:25;5.10;99.90
37240;DHT22;23130;48.760;9.178;2023-03-11T16:23:52;5.10;99.90
37240;DHT22;23130;48.760;9.178;2023-03-11T16:26:18;5.10;99.90
37240;DHT22;23130;48.760;9.178;2023-03-11T16:28:43;5.00;99.90
37240;DHT22;23130;48.760;9.178;2023-03-11T16:31:09;4.90;99.90
37240;DHT22;23130;48.760;9.178;2023-03-11T16:33:35;4.90;99.90
37240;DHT22;23130;48.760;9.178;2023-03-11T16:36:01;4.70;99.90
37240;DHT22;23130;48.760;9.178;2023-03-11T16:38:28;4.70;99.90
37240;DHT22;23130;48.760;9.178;2023-03-11T16:40:56;4.60;99.90
37240;DHT22;23130;48.760;9.178;2023-03-11T16:43:22;4.60;99.90
37240;DHT22;23130;48.760;9.178;2023-03-11T16:45:48;4.50;99.90
37240;DHT22;23130;48.760;9.178;2023-03-11T16:48:13;4.40;99.90
37240;DHT22;23130;48.760;9.178;2023-03-11T16:50:39;4.40;99.90
37240;DHT22;23130;48.760;9.178;2023-03-11T16:53:05;4.30;99.90
37240;DHT22;23130;48.760;9.178;2023-03-11T16:55:30;4.20;99.90
37240;DHT22;23130;48.760;9.178;2023-03-11T16:57:56;4.30;99.90
37240;DHT22;23130;48.760;9.178;2023-03-11T17:00:22;4.20;99.90
37240;DHT22;23130;48.760;9.178;2023-03-11T17:02:49;4.10;99.90
37240;DHT22;23130;48.760;9.178;2023-03-11T17:05:14;4.10;99.90
37240;DHT22;23130;48.760;9.178;2023-03-11T17:07:40;4.00;99.90
37240;DHT22;23130;48.760;9.178;2023-03-11T17:10:09;4.00;99.90
37240;DHT22;23130;48.760;9.178;2023-03-11T17:12:35;3.90;99.90
37240;DHT22;23130;48.760;9.178;2023-03-11T17:15:02;3.90;99.90
37240;DHT22;23130;48.760;9.178;2023-03-11T17:17:28;3.80;99.90
37240;DHT22;23130;48.760;9.178;2023-03-11T17:19:53;3.80;99.90
37240;DHT22;23130;48.760;9.178;2023-03-11T17:22:19;3.70;99.90
37240;DHT22;23130;48.760;9.178;2023-03-11T17:24:44;3.70;99.90
37240;DHT22;23130;48.760;9.178;2023-03-11T17:27:10;3.60;99.90
37240;DHT22;23130;48.760;9.178;2023-03-11T17:29:36;3.60;99.90
37240;DHT22;23130;48.760;9.178;2023-03-11T17:32:02;3.50;99.90
37240;DHT22;23130;48.760;9.178;2023-03-11T17:34:27;3.40;99.90
37240;DHT22;23130;48.760;9.178;2023-03-11T17:36:53;3.30;99.90
37240;DHT22;23130;48.760;9.178;2023-03-11T17:39:19;3.30;99.90
37240;DHT22;23130;48.760;9.178;2023-03-11T17:41:45;3.20;99.90